Du har inga inställningar för hoppväder.nu

Hoppväder.nu

Senast uppdaterat 02:22

UTC-tid

2019-12-06 kl. 01:22


Sol och måne

Solen går upp 8:17 och går ner 15:13 (beräknade cirkatider)
Nästa fullmåne blir om 6 dagar (2019-12-12)

METAR

ESMQ (Kalmar)
(32 minuter sedan)
ESMQ 060050Z AUTO 20014KT 9999 BKN023/// OVC032/// 06/02 Q1000=



ESMX (Växjö)
(32 minuter sedan)
ESMX 060050Z AUTO 20016KT 7000 DZ OVC009/// 05/04 Q0997=



ESMK (Ronneby)
(32 minuter sedan)
ESMK 060050Z AUTO 22014KT 9999 -RA BKN016/// OVC020/// 06/04 Q1001=



ESSV (Visby)
(32 minuter sedan)
ESSV 060050Z AUTO 22022KT 9999 FEW014/// OVC028/// 06/04 Q0998=






TAF

ESMQ (Kalmar)
(292 minuter sedan)
ESMQ 052030Z 0521/0524 22012KT 9999 SCT025=



ESMX (Växjö)
(472 minuter sedan)
ESMX 051730Z 0518/0522 22010KT 9999 SCT004 BKN015 PROB40 0518/0520 BKN012 TEMPO 0520/0522 4000 RA DZ BKN009=



ESMK (Ronneby)
ESMK



ESSV (Visby)
(472 minuter sedan)
ESSV 051730Z 0518/0523 24022G32KT 9999 BKN025=





Kodnycklar till TAF och METAR






LHP

(Borglanda är område K1a i Sydöstra delen)

Prognos är inte uppdaterad




Spotting

Hur fungerar spotthjälpen och Vindkartan?

Markvind är ca 0 m/s.



Vindkartan

Senast uppdaterad 02:22




All data kommer från LFV.se